OISL

Lar Airport

Lar, Iran
TAF OISL 181730Z 1818/1924 18004MPS 8000 NSC
Issued Valid From Valid To
Jul-18 @ 17:30 UTC
(5 hours ago)
Jul-18 @ 18:00 UTC
(4 hours ago)
Jul-20 @ 00:00 UTC
(-1 days ago)
Jul-18 @ 18:00 to Jul-20 @ 00:00
TAF OISL 181730Z 1818/1924 18004MPS 8000 NSC
Wind Visibility Clouds
180° at 8 knots 7,998 meters
  • No significant clouds
TAF OISL 181730Z 1818/1924 18004MPS 8000 NSC
Issued Jul-18 @ 17:30 UTC
(5 hours ago)
Valid From Jul-18 @ 18:00 UTC
(4 hours ago)
Valid To Jul-20 @ 00:00 UTC
(-1 days ago)
Jul-18 @ 18:00 - Jul-20 @ 00:00
Wind Visibility
180° at 8 knots 7,998 meters
Clouds
  • No significant clouds